Time;durP1;ratioP1;P1;durP2;ratioP2;P2;SDS_P1;SDS_P2;PMS_P1;PMS_P2;Temp;Humidity;BMP_temperature;BMP_pressure;BME280_temperature;BME280_humidity;BME280_pressure;Samples;Min_cycle;Max_cycle;Signal;HPM_P1;HPM_P2
2022/02/28 00:01:53;;;;;;;9.95;3.33;;;;;;;-5.15;89.14;101449.19;5000010;28;20144;-65
2022/02/28 00:04:20;;;;;;;10.13;3.03;;;;;;;-5.14;89.25;101439.53;5016129;28;20519;-66
2022/02/28 00:06:47;;;;;;;14.75;2.85;;;;;;;-5.20;89.20;101440.41;5049152;28;20497;-64
2022/02/28 00:09:13;;;;;;;11.70;2.70;;;;;;;-5.21;89.00;101441.31;5016413;28;20048;-63
2022/02/28 00:11:39;;;;;;;10.13;2.88;;;;;;;-5.29;89.61;101442.25;4999756;28;20055;-65
2022/02/28 00:14:05;;;;;;;11.23;2.58;;;;;;;-5.34;89.88;101439.59;5016102;28;20041;-65
2022/02/28 00:16:31;;;;;;;10.18;3.17;;;;;;;-5.34;89.88;101450.16;5015807;28;20073;-64
2022/02/28 00:18:57;;;;;;;10.38;3.55;;;;;;;-5.40;90.16;101447.56;5015422;28;20136;-66
2022/02/28 00:21:23;;;;;;;12.93;3.50;;;;;;;-5.47;90.34;101440.56;5011590;28;20373;-67
2022/02/28 00:23:49;;;;;;;11.30;3.38;;;;;;;-5.42;90.54;101444.03;5018242;28;20079;-66
2022/02/28 00:26:15;;;;;;;12.27;2.80;;;;;;;-5.46;90.36;101442.31;4992683;28;20063;-65
2022/02/28 00:28:41;;;;;;;11.07;2.80;;;;;;;-5.55;90.50;101434.44;4986051;28;20039;-68
2022/02/28 00:31:07;;;;;;;9.23;2.88;;;;;;;-5.51;91.01;101438.81;5011941;28;20101;-65
2022/02/28 00:33:36;;;;;;;8.43;2.85;;;;;;;-5.53;90.70;101438.81;4998941;28;20103;-66
2022/02/28 00:36:02;;;;;;;9.48;2.90;;;;;;;-5.55;90.89;101447.63;5013831;28;20332;-65
2022/02/28 00:38:28;;;;;;;11.63;3.35;;;;;;;-5.53;91.53;101448.47;5013484;28;20049;-65
2022/02/28 00:40:54;;;;;;;10.30;3.03;;;;;;;-5.61;91.85;101449.38;5031441;28;20054;-66
2022/02/28 00:43:21;;;;;;;14.02;3.88;;;;;;;-5.65;91.70;101442.38;4980624;28;20049;-66
2022/02/28 00:45:47;;;;;;;13.80;3.50;;;;;;;-5.68;91.71;101452.91;4980420;28;20050;-64
2022/02/28 00:48:14;;;;;;;10.68;3.10;;;;;;;-5.61;92.24;101448.50;5012928;28;20558;-63
2022/02/28 00:50:41;;;;;;;12.02;3.67;;;;;;;-5.57;92.75;101445.84;4996435;28;20558;-64
2022/02/28 00:53:07;;;;;;;9.30;3.00;;;;;;;-5.63;92.55;101443.25;5013144;28;20050;-65
2022/02/28 00:55:33;;;;;;;9.05;3.20;;;;;;;-5.55;92.83;101452.91;4996749;28;20128;-65
2022/02/28 00:57:59;;;;;;;9.93;3.25;;;;;;;-5.62;92.11;101442.38;4996702;28;20050;-65
2022/02/28 01:00:25;;;;;;;8.38;2.50;;;;;;;-5.58;92.35;101438.84;4980378;28;20044;-65
2022/02/28 01:02:51;;;;;;;9.40;3.10;;;;;;;-5.55;92.94;101450.25;5046300;28;20068;-65
2022/02/28 01:05:18;;;;;;;9.40;3.15;;;;;;;-5.62;92.10;101437.09;4980930;28;20046;-65
2022/02/28 01:07:46;;;;;;;12.07;3.20;;;;;;;-5.61;92.21;101444.13;4996541;28;20045;-66
2022/02/28 01:10:13;;;;;;;11.43;2.80;;;;;;;-5.76;92.41;101415.19;4997063;28;20049;-65
2022/02/28 01:12:40;;;;;;;7.95;2.45;;;;;;;-5.60;92.67;101444.97;5029605;28;20049;-65
2022/02/28 01:15:09;;;;;;;13.68;3.60;;;;;;;-5.63;92.81;101438.00;4980259;28;20145;-66
2022/02/28 01:17:35;;;;;;;10.00;3.00;;;;;;;-5.66;93.02;101440.63;5013055;28;20167;-66
2022/02/28 01:20:01;;;;;;;10.20;2.78;;;;;;;-5.70;92.76;101444.16;4996365;28;20045;-64
2022/02/28 01:22:28;;;;;;;10.75;3.33;;;;;;;-5.70;93.25;101438.03;5013522;28;20124;-65
2022/02/28 01:24:54;;;;;;;11.55;3.40;;;;;;;-5.72;92.92;101426.59;4980446;28;20148;-65
2022/02/28 01:27:22;;;;;;;11.32;3.33;;;;;;;-5.75;93.27;101432.75;4980792;28;20049;-68
2022/02/28 01:29:48;;;;;;;9.05;2.95;;;;;;;-5.74;93.21;101431.88;5013293;28;20115;-64
2022/02/28 01:32:14;;;;;;;9.50;3.50;;;;;;;-5.71;93.69;101431.84;4980381;28;20084;-65
2022/02/28 01:34:40;;;;;;;9.93;2.97;;;;;;;-5.71;93.36;101436.25;4996256;28;20052;-66
2022/02/28 01:37:07;;;;;;;9.50;2.88;;;;;;;-5.76;93.05;101438.91;5062260;28;20160;-66
2022/02/28 01:39:33;;;;;;;9.55;2.60;;;;;;;-5.75;93.20;101439.78;5028691;28;20397;-66
2022/02/28 01:41:59;;;;;;;9.48;3.10;;;;;;;-5.81;93.28;101430.16;4999430;28;20056;-65
2022/02/28 01:44:25;;;;;;;10.85;3.30;;;;;;;-5.90;93.93;101430.16;5000216;28;20052;-65
2022/02/28 01:46:51;;;;;;;10.18;3.10;;;;;;;-6.13;94.02;101386.38;4984643;28;20042;-66
2022/02/28 01:49:17;;;;;;;9.98;3.30;;;;;;;-5.90;94.09;101420.50;5017735;28;20455;-64
2022/02/28 01:51:45;;;;;;;11.10;4.35;;;;;;;-5.86;94.53;101431.91;5051084;28;20076;-65
2022/02/28 01:54:11;;;;;;;10.10;3.55;;;;;;;-5.84;94.51;101432.78;5032844;28;20374;-65
2022/02/28 01:56:37;;;;;;;11.00;3.50;;;;;;;-5.90;94.77;101427.53;4999523;28;20090;-64
2022/02/28 01:59:04;;;;;;;10.80;3.90;;;;;;;-5.91;94.82;101433.69;4999035;28;20057;-65
2022/02/28 02:01:30;;;;;;;11.02;3.28;;;;;;;-5.97;95.27;101433.72;4999207;28;20110;-64
2022/02/28 02:03:55;;;;;;;10.10;3.17;;;;;;;-5.95;95.13;101437.22;4982597;28;20505;-66
2022/02/28 02:06:21;;;;;;;11.32;4.07;;;;;;;-6.12;95.38;101411.81;4998660;28;20556;-64
2022/02/28 02:08:47;;;;;;;11.00;4.18;;;;;;;-6.03;95.31;101424.09;4998725;28;20090;-66
2022/02/28 02:11:14;;;;;;;10.60;3.70;;;;;;;-5.99;95.11;101435.50;4998980;28;20049;-65
2022/02/28 02:13:42;;;;;;;12.30;4.60;;;;;;;-6.04;95.48;101427.59;5048506;28;20166;-64
2022/02/28 02:16:08;;;;;;;11.43;3.40;;;;;;;-6.11;95.71;101429.34;4982106;28;20037;-65
2022/02/28 02:18:34;;;;;;;12.70;4.90;;;;;;;-6.16;95.72;101428.50;4998680;28;20072;-66
2022/02/28 02:21:01;;;;;;;14.25;4.30;;;;;;;-6.14;95.98;101421.47;4982537;28;20564;-65
2022/02/28 02:23:27;;;;;;;13.07;4.85;;;;;;;-6.18;95.99;101425.00;5031385;28;20045;-66
2022/02/28 02:25:57;;;;;;;14.35;3.95;;;;;;;-6.17;96.67;101432.00;4982483;28;20075;-66
2022/02/28 02:28:25;;;;;;;14.73;4.00;;;;;;;-6.18;96.44;101429.34;5015677;28;20439;-64
2022/02/28 02:30:54;;;;;;;13.68;4.15;;;;;;;-6.20;96.43;101432.00;4982131;28;20048;-65
2022/02/28 02:33:21;;;;;;;12.10;4.63;;;;;;;-6.22;96.78;101430.25;4982577;28;20492;-66
2022/02/28 02:35:51;;;;;;;12.20;4.10;;;;;;;-6.23;96.46;101432.00;4999853;28;20045;-66
2022/02/28 02:38:17;;;;;;;12.27;4.18;;;;;;;-6.20;97.04;101439.03;5048144;28;20061;-65
2022/02/28 02:40:43;;;;;;;11.05;3.90;;;;;;;-6.28;97.01;101433.78;4998279;28;20477;-65
2022/02/28 02:43:09;;;;;;;14.38;4.30;;;;;;;-6.27;96.96;101435.53;4998264;28;20057;-65
2022/02/28 02:45:35;;;;;;;11.85;4.28;;;;;;;-6.28;97.47;101428.50;5014293;28;20489;-66
2022/02/28 02:48:12;;;;;;;10.82;4.00;;;;;;;-6.29;97.08;101421.47;4982022;28;20540;-65
2022/02/28 02:50:38;;;;;;;16.52;4.30;;;;;;;-6.30;97.70;101414.47;5014388;28;20416;-66
2022/02/28 02:53:04;;;;;;;11.98;4.07;;;;;;;-6.30;97.74;101419.72;4997373;28;20493;-65
2022/02/28 02:55:30;;;;;;;12.70;4.43;;;;;;;-6.29;97.49;101410.94;4981897;28;20081;-64
2022/02/28 02:57:56;;;;;;;20.83;4.53;;;;;;;-6.17;97.57;101421.47;4981615;28;20128;-67
2022/02/28 03:00:22;;;;;;;9.00;3.85;;;;;;;-6.25;97.65;101415.34;5013767;28;20144;-65
2022/02/28 03:03:05;;;;;;;13.48;4.70;;;;;;;-6.27;97.66;101403.94;4986898;28;20073;-64
2022/02/28 03:05:32;;;;;;;14.65;4.45;;;;;;;-6.25;98.01;101411.81;4981896;28;20058;-64
2022/02/28 03:07:58;;;;;;;14.27;3.83;;;;;;;-6.21;98.20;101411.84;4997532;28;20099;-65
2022/02/28 03:10:26;;;;;;;13.60;4.95;;;;;;;-6.21;97.77;101417.09;5030476;28;20408;-66
2022/02/28 03:12:53;;;;;;;12.98;4.55;;;;;;;-6.25;98.11;101407.47;5014098;28;20060;-63
2022/02/28 03:15:20;;;;;;;14.45;4.57;;;;;;;-6.15;98.38;101424.97;4981391;28;20392;-66
2022/02/28 03:17:46;;;;;;;14.60;4.50;;;;;;;-6.19;98.27;101423.22;5013195;28;20042;-65
2022/02/28 03:20:12;;;;;;;14.90;5.07;;;;;;;-6.19;98.44;101428.47;4997266;28;20114;-66
2022/02/28 03:22:38;;;;;;;12.55;4.95;;;;;;;-6.24;97.80;101414.47;4997645;28;20046;-65
2022/02/28 03:25:05;;;;;;;17.42;4.93;;;;;;;-6.25;98.10;101418.00;4980919;28;20049;-66
2022/02/28 03:27:37;;;;;;;11.15;3.45;;;;;;;-6.25;98.34;101433.78;5029673;28;20420;-65
2022/02/28 03:30:05;;;;;;;11.55;4.25;;;;;;;-6.39;98.13;101398.72;4997177;28;20088;-66
2022/02/28 03:32:33;;;;;;;14.82;5.28;;;;;;;-6.28;98.23;101423.25;5029882;28;20462;-64
2022/02/28 03:34:59;;;;;;;13.80;4.60;;;;;;;-6.27;98.80;101430.25;4997217;28;20062;-65
2022/02/28 03:37:25;;;;;;;13.27;4.57;;;;;;;-6.31;98.12;101429.38;5013683;28;20045;-66
2022/02/28 03:39:51;;;;;;;12.02;4.38;;;;;;;-6.28;98.25;101433.78;4996961;28;20424;-65
2022/02/28 03:42:17;;;;;;;14.15;5.40;;;;;;;-6.36;98.94;101427.63;4997082;28;20042;-65
2022/02/28 03:44:43;;;;;;;17.00;5.20;;;;;;;-6.28;98.71;101439.03;4996885;28;20049;-66
2022/02/28 03:47:09;;;;;;;13.70;5.07;;;;;;;-6.23;99.04;101445.16;4996343;28;20049;-66
2022/02/28 03:49:54;;;;;;;13.40;5.28;;;;;;;-6.29;99.21;101445.16;5031694;28;20045;-66
2022/02/28 03:52:32;;;;;;;16.33;5.18;;;;;;;-6.30;98.84;101446.03;4984913;28;20577;-65
2022/02/28 03:55:02;;;;;;;14.55;5.70;;;;;;;-6.27;98.78;101453.94;5045276;28;20053;-66
2022/02/28 03:57:29;;;;;;;14.93;5.40;;;;;;;-6.20;98.72;101463.59;4981326;28;20140;-66
2022/02/28 03:59:55;;;;;;;17.10;5.65;;;;;;;-6.22;98.54;101454.81;5012963;28;20133;-66
2022/02/28 04:02:21;;;;;;;14.60;5.93;;;;;;;-6.36;98.24;101435.50;5013086;28;20136;-66
2022/02/28 04:04:48;;;;;;;14.07;5.20;;;;;;;-6.24;98.73;101456.56;5012693;28;20419;-66
2022/02/28 04:07:15;;;;;;;15.38;4.85;;;;;;;-6.19;98.27;101469.72;5038945;28;20133;-65
2022/02/28 04:09:41;;;;;;;13.10;5.18;;;;;;;-6.23;98.31;101466.22;5028281;28;20382;-66
2022/02/28 04:12:09;;;;;;;13.57;5.15;;;;;;;-6.23;98.64;101476.75;4974894;28;20489;-67
2022/02/28 04:14:36;;;;;;;13.32;5.00;;;;;;;-6.26;98.58;101474.09;5056033;28;20057;-68
2022/02/28 04:17:02;;;;;;;16.27;5.63;;;;;;;-6.28;98.67;101470.63;5025690;28;20037;-67
2022/02/28 04:19:40;;;;;;;17.00;5.43;;;;;;;-6.23;99.31;101468.84;5042645;28;20052;-69
2022/02/28 04:22:07;;;;;;;12.75;5.35;;;;;;;-6.22;99.11;101475.84;5017952;28;20394;-68
2022/02/28 04:24:38;;;;;;;12.45;5.22;;;;;;;-6.29;98.48;101467.97;5024873;28;20207;-68
2022/02/28 04:27:04;;;;;;;15.82;5.32;;;;;;;-6.29;98.68;101471.47;5041045;28;20412;-66
2022/02/28 04:29:31;;;;;;;15.57;6.43;;;;;;;-6.25;98.67;101470.63;5042561;28;20045;-68
2022/02/28 04:32:04;;;;;;;16.17;5.45;;;;;;;-6.41;98.52;101453.06;5034925;28;20132;-69
2022/02/28 04:34:35;;;;;;;16.50;5.72;;;;;;;-6.43;98.85;101450.44;5013691;28;20456;-69
2022/02/28 04:37:00;;;;;;;13.98;5.25;;;;;;;-6.27;99.20;101477.63;5008286;28;20519;-69
2022/02/28 04:39:26;;;;;;;21.33;6.38;;;;;;;-6.29;98.58;101473.22;5025428;28;20050;-71
2022/02/28 04:41:52;;;;;;;15.68;5.30;;;;;;;-6.29;98.68;101473.22;5026790;28;20041;-69
2022/02/28 04:44:18;;;;;;;14.45;5.43;;;;;;;-6.26;98.23;101474.09;4975283;28;20140;-68
2022/02/28 04:46:45;;;;;;;23.08;5.28;;;;;;;-6.24;98.34;101472.38;5020150;28;20032;-68
2022/02/28 04:49:29;;;;;;;13.20;4.88;;;;;;;-6.23;97.87;101474.09;5021439;28;20053;-68
2022/02/28 04:51:56;;;;;;;17.48;5.75;;;;;;;-6.20;98.15;101474.13;4994209;28;20037;-68
2022/02/28 04:54:22;;;;;;;12.85;4.85;;;;;;;-6.09;97.67;101482.00;5011941;28;20489;-68
2022/02/28 04:56:51;;;;;;;12.98;4.90;;;;;;;-6.11;97.51;101471.47;5012530;28;20049;-68
2022/02/28 04:59:17;;;;;;;12.23;4.93;;;;;;;-5.98;97.53;101484.63;5011651;28;20052;-69
2022/02/28 05:01:49;;;;;;;16.33;5.45;;;;;;;-5.96;96.53;101482.84;5029740;28;20127;-67
2022/02/28 05:04:45;;;;;;;23.05;5.35;;;;;;;-5.87;96.21;101477.56;5032472;28;20521;-67
2022/02/28 05:07:12;;;;;;;17.83;5.13;;;;;;;-5.76;95.86;101486.31;5029111;28;20057;-68
2022/02/28 05:09:41;;;;;;;15.20;5.57;;;;;;;-5.71;95.94;101489.78;5012247;28;20434;-68
2022/02/28 05:12:08;;;;;;;12.82;4.50;;;;;;;-5.65;94.53;101489.78;5012201;28;20420;-68
2022/02/28 05:14:34;;;;;;;12.98;5.10;;;;;;;-5.59;94.29;101489.78;5012049;28;20484;-68
2022/02/28 05:17:00;;;;;;;17.85;4.93;;;;;;;-5.52;93.86;101487.09;5031785;28;20041;-68
2022/02/28 05:19:28;;;;;;;13.38;5.13;;;;;;;-5.45;93.87;101491.47;4999979;28;20084;-69
2022/02/28 05:21:54;;;;;;;13.90;4.45;;;;;;;-5.37;92.91;101487.09;4999704;28;20076;-68
2022/02/28 05:24:21;;;;;;;17.58;6.22;;;;;;;-5.36;92.56;101488.81;5016087;28;20053;-68
2022/02/28 05:26:49;;;;;;;13.57;4.85;;;;;;;-5.21;92.63;101486.13;5032113;28;20094;-68
2022/02/28 05:29:15;;;;;;;14.05;4.90;;;;;;;-5.06;91.43;101484.31;5015777;28;20048;-68
2022/02/28 05:31:41;;;;;;;12.48;5.22;;;;;;;-4.54;90.00;101483.97;5015999;28;20446;-68
2022/02/28 05:34:43;;;;;;;14.20;4.22;;;;;;;-3.73;85.40;101497.38;5014485;28;20198;-68
2022/02/28 05:37:11;;;;;;;10.55;4.40;;;;;;;-2.61;80.53;101476.56;4999753;28;20081;-68
2022/02/28 05:39:50;;;;;;;13.40;4.97;;;;;;;-1.75;74.91;101486.63;5016506;28;20068;-68
2022/02/28 05:42:20;;;;;;;;;;;;;;;-0.93;70.99;101493.84;5049648;28;20041;-68
2022/02/28 05:44:49;;;;;;;8.85;3.60;;;;;;;-0.56;68.71;101485.94;5016713;28;19979;-68
2022/02/28 05:47:16;;;;;;;13.13;4.00;;;;;;;-0.26;66.15;101486.97;4999964;28;20045;-68
2022/02/28 05:49:44;;;;;;;11.70;3.97;;;;;;;0.19;64.85;101495.59;4984838;28;20103;-67
2022/02/28 05:52:10;;;;;;;16.10;4.30;;;;;;;0.78;62.44;101504.66;5049590;28;20033;-69
2022/02/28 05:54:39;;;;;;;10.30;4.15;;;;;;;1.19;62.21;101496.31;5049607;28;20049;-71
2022/02/28 05:57:05;;;;;;;14.05;4.07;;;;;;;1.75;58.80;101499.94;5049326;28;20466;-69
2022/02/28 05:59:32;;;;;;;14.35;4.72;;;;;;;2.28;57.17;101494.63;5016733;28;20045;-69
2022/02/28 06:01:58;;;;;;;13.20;4.38;;;;;;;2.52;55.06;101498.19;5032351;28;20195;-68
2022/02/28 06:04:24;;;;;;;13.05;4.32;;;;;;;2.54;55.32;101499.91;5032846;28;20045;-69
2022/02/28 06:06:50;;;;;;;12.13;4.22;;;;;;;3.54;52.87;101493.47;5000209;28;20052;-69
2022/02/28 06:09:16;;;;;;;16.65;4.40;;;;;;;3.76;52.09;101496.16;5031912;28;20041;-68
2022/02/28 06:11:43;;;;;;;10.68;3.72;;;;;;;3.65;50.72;101488.56;5048585;28;20045;-68
2022/02/28 06:14:09;;;;;;;18.45;4.10;;;;;;;4.66;49.13;101495.00;4999170;28;20041;-69
2022/02/28 06:16:34;;;;;;;34.53;5.20;;;;;;;4.28;49.07;101494.00;5014769;28;20059;-69
2022/02/28 06:19:01;;;;;;;13.27;4.15;;;;;;;4.39;48.88;101497.09;5047709;28;20425;-69
2022/02/28 06:21:26;;;;;;;10.40;4.68;;;;;;;5.32;46.65;101483.94;5047763;28;20041;-69
2022/02/28 06:23:53;;;;;;;24.17;4.80;;;;;;;4.73;47.31;101496.47;5014065;28;20520;-69
2022/02/28 06:26:19;;;;;;;12.20;4.00;;;;;;;3.95;48.36;101491.81;5014222;28;20173;-68
2022/02/28 06:28:45;;;;;;;12.20;4.22;;;;;;;4.58;47.92;101499.81;5047176;28;20053;-69
2022/02/28 06:31:11;;;;;;;15.25;4.57;;;;;;;3.55;50.29;101490.75;5014596;28;20049;-69
2022/02/28 06:33:38;;;;;;;14.65;3.88;;;;;;;3.04;51.14;101491.84;5031612;28;20201;-69
2022/02/28 06:36:04;;;;;;;15.15;4.97;;;;;;;4.09;49.16;101489.41;5032286;28;20057;-69
2022/02/28 06:38:30;;;;;;;10.63;3.88;;;;;;;5.02;46.58;101484.44;5032290;28;20075;-70
2022/02/28 06:40:56;;;;;;;13.60;4.18;;;;;;;5.68;45.52;101501.91;5048181;28;20183;-70
2022/02/28 06:43:24;;;;;;;13.48;4.32;;;;;;;6.64;42.32;101494.34;5015122;28;20076;-69
2022/02/28 06:45:55;;;;;;;13.75;5.10;;;;;;;6.37;42.98;101495.81;5047987;28;20064;-70
2022/02/28 06:48:21;;;;;;;12.60;4.60;;;;;;;6.78;43.05;101506.22;5034329;28;20041;-72
2022/02/28 06:50:47;;;;;;;18.63;4.93;;;;;;;8.41;39.91;101504.22;5034671;28;20554;-71
2022/02/28 06:53:18;;;;;;;17.15;3.70;;;;;;;7.01;40.62;101506.69;5017777;28;20042;-70
2022/02/28 06:55:46;;;;;;;10.55;4.22;;;;;;;7.08;41.16;101503.69;5050559;28;20053;-73
2022/02/28 06:58:11;;;;;;;17.98;3.83;;;;;;;7.29;40.89;101505.22;5017346;28;20099;-72
2022/02/28 07:00:38;;;;;;;13.00;6.18;;;;;;;8.63;37.97;101503.78;5014849;28;20092;-70
2022/02/28 07:03:08;;;;;;;20.30;3.92;;;;;;;9.01;37.78;101506.81;5047190;28;20076;-70
2022/02/28 07:05:35;;;;;;;25.50;5.43;;;;;;;8.95;37.29;101504.47;5013841;28;20087;-70
2022/02/28 07:08:01;;;;;;;15.35;4.55;;;;;;;8.79;37.31;101509.97;5021147;28;20037;-70
2022/02/28 07:10:27;;;;;;;14.35;4.75;;;;;;;8.52;37.83;101517.00;5001443;28;20041;-71
2022/02/28 07:12:52;;;;;;;13.38;4.57;;;;;;;9.15;37.09;101503.25;5001277;28;20134;-69
2022/02/28 07:15:18;;;;;;;14.88;3.95;;;;;;;8.63;36.84;101504.66;5013466;28;20072;-70
2022/02/28 07:17:44;;;;;;;14.65;4.75;;;;;;;9.30;36.44;101499.56;4983719;28;20128;-71
2022/02/28 07:20:11;;;;;;;31.10;5.97;;;;;;;9.11;35.47;101497.19;4999471;28;20051;-70
2022/02/28 07:22:36;;;;;;;16.38;4.40;;;;;;;9.93;34.57;101498.19;4983261;28;20041;-71
2022/02/28 07:25:03;;;;;;;29.13;5.18;;;;;;;9.37;36.28;101502.75;4981501;28;20524;-71
2022/02/28 07:27:29;;;;;;;13.75;4.53;;;;;;;10.72;34.32;101502.78;4998484;28;20052;-70
2022/02/28 07:29:55;;;;;;;16.10;4.43;;;;;;;11.32;32.74;101506.66;4997766;28;20041;-70
2022/02/28 07:32:21;;;;;;;14.27;4.47;;;;;;;10.40;32.98;101502.28;4983163;28;20053;-70
2022/02/28 07:34:47;;;;;;;14.02;4.47;;;;;;;10.07;33.75;101510.78;4999670;28;20465;-70
2022/02/28 07:37:12;;;;;;;15.40;4.90;;;;;;;10.63;33.30;101503.38;4982649;28;20401;-70
2022/02/28 07:39:38;;;;;;;11.98;4.65;;;;;;;9.74;34.24;101503.06;4981229;28;20507;-71
2022/02/28 07:42:04;;;;;;;16.20;5.07;;;;;;;10.31;34.77;101494.78;4981677;28;20041;-70
2022/02/28 07:44:30;;;;;;;14.00;4.43;;;;;;;11.79;32.36;101499.59;5046439;28;20041;-70
2022/02/28 07:46:56;;;;;;;16.20;4.20;;;;;;;10.56;33.48;101497.53;4982549;28;20484;-70
2022/02/28 07:49:23;;;;;;;12.68;4.05;;;;;;;9.37;34.16;101495.53;4981606;28;20049;-71
2022/02/28 07:51:49;;;;;;;16.83;3.65;;;;;;;9.27;35.40;101497.06;5013817;28;20083;-70
2022/02/28 07:54:15;;;;;;;16.40;5.32;;;;;;;9.42;34.83;101493.38;5016837;28;20045;-70
2022/02/28 07:56:40;;;;;;;26.88;5.20;;;;;;;10.68;32.70;101495.84;4986990;28;20467;-71
2022/02/28 07:59:07;;;;;;;13.68;5.20;;;;;;;11.32;31.68;101485.84;5013356;28;20045;-70
2022/02/28 08:01:32;;;;;;;15.68;5.03;;;;;;;12.34;31.10;101483.78;4996724;28;20515;-71
2022/02/28 08:03:59;;;;;;;11.35;3.83;;;;;;;12.15;30.72;101501.44;4980738;28;20483;-70
2022/02/28 08:06:25;;;;;;;11.63;4.63;;;;;;;13.39;28.64;101493.63;4981147;28;20131;-71
2022/02/28 08:08:51;;;;;;;24.15;5.00;;;;;;;14.32;27.78;101482.25;4980133;28;20049;-70
2022/02/28 08:11:17;;;;;;;11.60;5.40;;;;;;;14.92;26.67;101494.34;4997126;28;20037;-71
2022/02/28 08:13:42;;;;;;;20.05;4.80;;;;;;;15.01;26.35;101496.25;4980764;28;20569;-71
2022/02/28 08:16:08;;;;;;;12.25;5.32;;;;;;;14.99;26.37;101495.53;4996632;28;20057;-71
2022/02/28 08:18:34;;;;;;;15.95;3.72;;;;;;;15.05;26.24;101480.50;4996241;28;20374;-71
2022/02/28 08:21:00;;;;;;;12.65;4.35;;;;;;;13.02;28.80;101488.38;4996677;28;20446;-72
2022/02/28 08:23:26;;;;;;;22.35;4.13;;;;;;;10.73;31.92;101488.25;5013236;28;20045;-71
2022/02/28 08:25:52;;;;;;;12.52;3.53;;;;;;;9.59;34.31;101499.53;4981082;28;20144;-72
2022/02/28 08:28:19;;;;;;;15.73;3.38;;;;;;;7.68;36.96;101493.19;4980640;28;20118;-71
2022/02/28 08:30:45;;;;;;;9.52;3.42;;;;;;;7.06;38.97;101486.75;4996790;28;20465;-71
2022/02/28 08:33:10;;;;;;;9.15;3.30;;;;;;;6.08;40.75;101499.97;4996541;28;20173;-71
2022/02/28 08:35:36;;;;;;;11.70;3.55;;;;;;;5.12;42.88;101486.66;4980231;28;20137;-71
2022/02/28 08:38:04;;;;;;;19.05;3.22;;;;;;;4.66;44.44;101492.31;5013865;28;20097;-71
2022/02/28 08:40:30;;;;;;;11.63;2.90;;;;;;;4.65;45.16;101481.69;5029864;28;20398;-71
2022/02/28 08:42:56;;;;;;;8.80;3.63;;;;;;;4.23;46.11;101485.28;4981363;28;20060;-71
2022/02/28 08:45:23;;;;;;;9.77;3.28;;;;;;;3.72;47.88;101486.50;5029130;28;20493;-71
2022/02/28 08:47:49;;;;;;;14.95;3.58;;;;;;;4.07;46.77;101480.59;4996708;28;20113;-70
2022/02/28 08:50:17;;;;;;;8.85;2.88;;;;;;;4.00;46.61;101489.81;4980248;28;20111;-71
2022/02/28 08:52:43;;;;;;;13.05;3.20;;;;;;;4.23;46.67;101486.13;5013576;28;20125;-71
2022/02/28 08:55:10;;;;;;;11.93;3.00;;;;;;;4.08;46.50;101482.31;4996537;28;20046;-70
2022/02/28 08:57:36;;;;;;;11.05;3.10;;;;;;;4.54;46.00;101475.00;5030628;28;20060;-71
2022/02/28 09:00:08;;;;;;;8.73;3.20;;;;;;;4.17;46.67;101469.47;4996766;28;20065;-71
2022/02/28 09:02:34;;;;;;;9.63;3.40;;;;;;;4.19;47.32;101483.66;4997470;28;20073;-71
2022/02/28 09:05:00;;;;;;;15.32;3.63;;;;;;;4.00;46.77;101481.78;4997492;28;20072;-70
2022/02/28 09:07:26;;;;;;;13.30;3.45;;;;;;;3.54;48.13;101470.28;4996569;28;20041;-70
2022/02/28 09:09:52;;;;;;;9.63;3.88;;;;;;;3.75;49.08;101489.06;4980197;28;20072;-70
2022/02/28 09:12:18;;;;;;;12.32;3.92;;;;;;;3.91;48.21;101468.75;4997147;28;20528;-70
2022/02/28 09:14:44;;;;;;;10.18;3.35;;;;;;;4.29;47.94;101477.00;5015152;28;20045;-71
2022/02/28 09:17:10;;;;;;;10.82;3.50;;;;;;;4.39;47.52;101474.75;4981327;28;20053;-70
2022/02/28 09:19:36;;;;;;;9.95;2.92;;;;;;;4.21;47.61;101471.09;4996999;28;20037;-71
2022/02/28 09:22:03;;;;;;;11.27;3.30;;;;;;;4.38;47.35;101473.91;4981653;28;20195;-71
2022/02/28 09:24:32;;;;;;;9.50;2.85;;;;;;;3.72;50.04;101473.13;5030128;28;20057;-70
2022/02/28 09:26:57;;;;;;;10.27;2.50;;;;;;;4.08;47.46;101479.63;4980776;28;20704;-70
2022/02/28 09:29:24;;;;;;;11.95;3.22;;;;;;;4.27;48.10;101478.84;5013109;28;20041;-70
2022/02/28 09:31:49;;;;;;;10.23;3.60;;;;;;;4.33;47.74;101481.28;4980706;28;20451;-70
2022/02/28 09:34:15;;;;;;;10.18;3.13;;;;;;;4.28;47.92;101468.09;5013294;28;20095;-70
2022/02/28 09:36:41;;;;;;;15.10;3.22;;;;;;;4.09;49.02;101483.19;4997497;28;20474;-70
2022/02/28 09:39:07;;;;;;;12.43;3.50;;;;;;;4.27;47.89;101478.84;4982114;28;20042;-70
2022/02/28 09:41:42;;;;;;;8.45;3.08;;;;;;;4.05;48.00;101471.72;4999400;28;20046;-70
2022/02/28 09:44:27;;;;;;;10.75;3.53;;;;;;;3.86;49.71;101465.41;5047437;28;20046;-69
2022/02/28 09:47:18;;;;;;;9.27;2.90;;;;;;;3.69;50.56;101466.09;5004489;28;20057;-70
2022/02/28 09:50:03;;;;;;;8.48;2.30;;;;;;;4.01;47.74;101443.38;5002490;28;20092;-69
2022/02/28 09:52:49;;;;;;;10.45;3.33;;;;;;;4.04;48.17;101464.66;5016571;28;20090;-70
2022/02/28 09:55:33;;;;;;;9.73;3.38;;;;;;;3.77;48.82;101468.50;5017458;28;20080;-70
2022/02/28 09:58:27;;;;;;;10.93;3.78;;;;;;;3.87;48.54;101468.03;5001473;28;20071;-70
2022/02/28 10:00:53;;;;;;;9.52;3.40;;;;;;;3.99;48.31;101461.31;4997178;28;20041;-71
2022/02/28 10:03:20;;;;;;;11.95;3.08;;;;;;;3.96;47.17;101450.72;4984643;28;20115;-70
2022/02/28 10:05:47;;;;;;;9.52;3.70;;;;;;;3.98;48.60;101454.19;5000148;28;20578;-69
2022/02/28 10:08:14;;;;;;;9.48;3.60;;;;;;;4.05;48.51;101460.16;5001243;28;20080;-69
2022/02/28 10:10:44;;;;;;;8.68;3.00;;;;;;;3.90;49.66;101450.13;5001378;28;20416;-70
2022/02/28 10:13:10;;;;;;;15.00;3.53;;;;;;;3.87;49.20;101445.75;5034057;28;20049;-70
2022/02/28 10:15:36;;;;;;;13.68;3.80;;;;;;;3.92;49.93;101458.97;4985725;28;20063;-69
2022/02/28 10:18:04;;;;;;;9.25;3.30;;;;;;;4.26;48.88;101458.38;5000782;28;20139;-70
2022/02/28 10:20:35;;;;;;;9.95;3.10;;;;;;;4.48;47.63;101459.19;5001618;28;20109;-71
2022/02/28 10:23:08;;;;;;;9.23;3.00;;;;;;;4.21;47.64;101439.84;5032775;28;20117;-70
2022/02/28 10:25:53;;;;;;;9.00;3.30;;;;;;;4.18;48.54;101457.84;5002944;28;20053;-70
2022/02/28 10:28:49;;;;;;;10.50;3.38;;;;;;;4.10;48.13;101453.69;5020580;28;20203;-69
2022/02/28 10:31:39;;;;;;;8.25;2.92;;;;;;;3.47;50.05;101442.03;5006078;28;20079;-70
2022/02/28 10:34:24;;;;;;;11.52;3.00;;;;;;;3.90;48.70;101440.28;5049379;28;20041;-70
2022/02/28 10:36:59;;;;;;;10.93;3.15;;;;;;;3.88;48.92;101436.81;5017162;28;20053;-70
2022/02/28 10:39:37;;;;;;;9.10;3.50;;;;;;;4.03;49.28;101441.50;5001676;28;20166;-69
2022/02/28 10:42:14;;;;;;;12.70;3.50;;;;;;;4.15;48.79;101439.25;5034088;28;20045;-70
2022/02/28 10:44:43;;;;;;;9.35;3.05;;;;;;;4.48;47.81;101443.09;5034389;28;20052;-70
2022/02/28 10:47:12;;;;;;;10.38;3.22;;;;;;;4.72;47.79;101429.56;5033397;28;20152;-69
2022/02/28 10:49:39;;;;;;;16.15;3.60;;;;;;;4.77;47.44;101427.53;5000524;28;20049;-69
2022/02/28 10:52:08;;;;;;;16.67;3.78;;;;;;;4.93;46.67;101399.06;5016800;28;20119;-69
2022/02/28 10:54:36;;;;;;;20.65;3.75;;;;;;;4.90;46.66;101427.81;5015929;28;20076;-69
2022/02/28 10:57:04;;;;;;;8.20;3.15;;;;;;;4.74;46.90;101433.03;4999894;28;20149;-70
2022/02/28 10:59:38;;;;;;;11.35;3.45;;;;;;;4.92;47.11;101428.63;5034532;28;20508;-69
2022/02/28 11:02:04;;;;;;;11.60;3.97;;;;;;;4.96;46.30;101433.78;5000656;28;20053;-70
2022/02/28 11:04:34;;;;;;;12.00;4.13;;;;;;;5.02;46.86;101403.16;4999398;28;20182;-70
2022/02/28 11:07:01;;;;;;;14.43;3.45;;;;;;;5.19;47.23;101424.66;4999339;28;20350;-70
2022/02/28 11:09:32;;;;;;;13.68;4.05;;;;;;;4.91;47.93;101430.44;5017711;28;20437;-70
2022/02/28 11:12:17;;;;;;;11.05;3.55;;;;;;;4.68;47.94;101433.31;5018891;28;20083;-70
2022/02/28 11:14:47;;;;;;;11.80;3.30;;;;;;;4.51;47.10;101426.03;4983961;28;20053;-70
2022/02/28 11:17:14;;;;;;;;;;;;;;;4.70;47.23;101426.06;5016316;28;20050;-69
2022/02/28 11:19:40;;;;;;;10.88;3.35;;;;;;;4.56;46.82;101414.16;5032642;28;20323;-69
2022/02/28 11:22:06;;;;;;;13.40;3.60;;;;;;;5.07;45.15;101410.00;4983225;28;20481;-69
2022/02/28 11:24:32;;;;;;;12.48;3.20;;;;;;;5.04;46.32;101410.16;4983133;28;20195;-69
2022/02/28 11:26:58;;;;;;;12.13;3.10;;;;;;;5.27;46.25;101416.25;4983426;28;20080;-69